Vasilevici, Belarus

11:21 PM +03 on March 01, 2017 (GMT +0300)
Gomel | | Change Station

Elev 472 ft 52.53 °N, 31.02 °E | Updated 21 minutes ago

Mostly Cloudy
Mostly Cloudy
45 °F
Feels Like 39 °F
N
11
Wind Variable Wind from SSE

Today
High -- | Low -- °F
--% Chance of Precip.
Yesterday
High -- | Low -- °F
Precip. -- in
Pressure 29.68 in
Visibility -9999.0 miles
Clouds
Windchill 39 °F
Dew Point 39 °F
Humidity 81%
Rainfall 0.00 in
Snow Depth Not available.
7:46 AM 6:40 PM
Waxing Crescent, 13% visible
METAR UMGG 012000Z 15005MPS CAVOK 07/04 Q1005 R10/CLRD// NOSIG
Pressure 29.68 in
Visibility -9999.0 miles
Clouds
Windchill 39 °F
Dew Point 39 °F
Humidity 81%
Rainfall 0.00 in
Snow Depth Not available.
7:46 AM 6:40 PM
Waxing Crescent, 13% visible
METAR UMGG 012000Z 15005MPS CAVOK 07/04 Q1005 R10/CLRD// NOSIG

Get Your Daily Forecast Email!

Thanks for signing up!

Be on the lookout for a verification email in your inbox.

You'll start receiving the daily forecast at 8 AM.

×

10-Day Weather Forecast

×

Almanac

Astronomy

Mar. 01, 2017 Rise Set
Actual Time
Civil Twilight
Nautical Twilight
Astronomical Twilight
Moon
Length of Visible Light
Length of Day
Tomorrow will be .
, % of the Moon is Illuminated

Today's Extremes

Country Highs Country Lows

Community

WunderPhotos

Upload Photos

1,962,540 photos uploaded!

WunderBlog® & News

Nearby

Air Quality

  Air Quality AQ Index Pollutant
Not available.

Snow Depth

Station Depth Elevation

Earthquake Activity

City Distance Mag. Time & Date
Minimum magnitude displayed is 2.5.

Coastal Water Temperatures

Place Temperature

Stations

Nearby Weather Stations

Station Location Temp. Windchill Dew Point Humidity Wind Precip. Elev Updated Type